Atlanta, Nebraska
Current Conditions -  °F | °C
As of 1:15 PM on Monday 20 Oct 2014 (Local Time) from KHDE Reporting Station
Clear Clear  
Wind Chill: 71°   Ceiling: Unl
Heat Index: 71°   Visibility: 10mi
Dew Point: 41°   Wind: 0mph
Humidity: 33%   Direction: NA
Pressure: 30.12"   Gusts: NA
Location:  40.37°N, 99.47°W
Report Text: KHDE 201815Z AUTO 00000KT 10SM CLR 22/05 A3012 RMK AO2 T02170048
Loading
Personal Weather Stations






























Interactive Weather Map New forecast layout! Learn more

10-Day Weather Forecast

Advertisements
Track Severe Weather on mobile